createdAt,value
2022-11-09T00:01:06.749Z,12.50
2022-11-09T00:03:33.739Z,9.90
2022-11-09T00:06:01.083Z,9.00
2022-11-09T00:08:30.699Z,6.60
2022-11-09T00:11:08.390Z,7.10
2022-11-09T00:13:36.249Z,8.20
2022-11-09T00:16:05.145Z,9.10
2022-11-09T00:18:32.198Z,9.70
2022-11-09T00:20:58.953Z,8.20
2022-11-09T00:23:26.243Z,8.40
2022-11-09T00:28:27.118Z,9.60
2022-11-09T00:31:03.926Z,7.60
2022-11-09T00:33:31.966Z,8.40
2022-11-09T00:35:59.460Z,9.10
2022-11-09T00:38:26.667Z,9.70
2022-11-09T00:40:53.488Z,7.60
2022-11-09T00:43:20.678Z,8.40
2022-11-09T00:45:48.885Z,7.40
2022-11-09T00:48:15.912Z,6.20
2022-11-09T00:50:43.035Z,7.00
2022-11-09T00:53:10.291Z,9.30
2022-11-09T00:55:38.046Z,10.80
2022-11-09T00:58:05.375Z,8.10
2022-11-09T01:00:32.805Z,9.10
2022-11-09T01:02:59.698Z,6.90
2022-11-09T01:05:26.980Z,8.00
2022-11-09T01:07:54.108Z,7.30
2022-11-09T01:10:24.349Z,10.80
2022-11-09T01:12:53.869Z,15.60
2022-11-09T01:15:21.197Z,11.80
2022-11-09T01:17:48.324Z,19.90
2022-11-09T01:20:17.326Z,9.40
2022-11-09T01:22:44.576Z,7.70
2022-11-09T01:25:12.085Z,12.50
2022-11-09T01:27:40.492Z,9.60
2022-11-09T01:30:08.471Z,9.40
2022-11-09T01:35:06.112Z,8.40
2022-11-09T01:37:33.172Z,9.50
2022-11-09T01:40:00.141Z,18.30
2022-11-09T01:42:27.055Z,11.00
2022-11-09T01:45:19.953Z,12.90
2022-11-09T01:47:48.756Z,12.40
2022-11-09T01:50:17.293Z,10.80
2022-11-09T01:52:45.692Z,8.80
2022-11-09T01:55:18.069Z,13.50
2022-11-09T01:57:55.852Z,13.00
2022-11-09T02:00:26.791Z,20.80
2022-11-09T02:02:57.346Z,26.80
2022-11-09T02:05:27.947Z,22.10
2022-11-09T02:07:56.957Z,9.50
2022-11-09T02:10:30.148Z,10.80
2022-11-09T02:12:59.130Z,12.00
2022-11-09T02:15:27.500Z,11.70
2022-11-09T02:25:33.810Z,10.40
2022-11-09T02:28:01.034Z,14.20
2022-11-09T02:30:30.543Z,10.10
2022-11-09T02:32:58.531Z,12.50
2022-11-09T02:35:25.880Z,9.80
2022-11-09T02:37:53.568Z,8.90
2022-11-09T02:40:27.370Z,8.60
2022-11-09T02:42:54.686Z,11.00
2022-11-09T02:45:21.555Z,10.60
2022-11-09T02:47:48.442Z,11.50
2022-11-09T02:50:16.173Z,10.90
2022-11-09T02:52:43.327Z,12.20
2022-11-09T02:55:10.904Z,14.80
2022-11-09T02:57:38.744Z,14.00
2022-11-09T03:00:09.068Z,14.50
2022-11-09T03:02:37.159Z,19.60
2022-11-09T03:05:05.526Z,12.00
2022-11-09T03:07:33.770Z,16.90
2022-11-09T03:10:02.441Z,25.40
2022-11-09T03:12:30.480Z,15.50
2022-11-09T03:15:15.092Z,19.20
2022-11-09T03:17:47.805Z,19.40
2022-11-09T03:20:14.712Z,19.90
2022-11-09T03:22:42.969Z,18.80
2022-11-09T03:25:11.110Z,20.50
2022-11-09T03:27:40.305Z,24.20
2022-11-09T03:30:09.236Z,19.00
2022-11-09T03:32:36.426Z,20.10
2022-11-09T03:35:05.950Z,20.60
2022-11-09T03:37:33.367Z,18.90
2022-11-09T03:40:01.520Z,21.00
2022-11-09T03:42:28.450Z,17.60
2022-11-09T03:44:55.360Z,14.80
2022-11-09T03:47:22.662Z,13.30
2022-11-09T03:49:49.481Z,18.50
2022-11-09T03:52:16.553Z,17.00
2022-11-09T03:54:46.156Z,15.50
2022-11-09T03:57:13.403Z,28.50
2022-11-09T03:59:41.472Z,21.20
2022-11-09T04:02:08.683Z,27.80
2022-11-09T06:16:13.980Z,154.60
2022-11-09T06:18:41.100Z,79.40
2022-11-09T06:23:37.706Z,160.30
2022-11-09T06:26:10.048Z,144.90
2022-11-09T06:28:38.143Z,145.50
2022-11-09T06:31:09.898Z,161.30
2022-11-09T06:33:36.894Z,224.60
2022-11-09T06:36:04.357Z,86.60
2022-11-09T06:38:31.717Z,58.50
2022-11-09T06:40:59.591Z,63.10
2022-11-09T06:43:27.163Z,91.90
2022-11-09T06:45:54.299Z,104.40
2022-11-09T06:48:21.945Z,113.50
2022-11-09T06:50:49.764Z,200.60
2022-11-09T06:53:17.512Z,64.30
2022-11-09T06:55:50.165Z,50.10
2022-11-09T06:58:17.757Z,56.40
2022-11-09T07:00:45.710Z,56.50
2022-11-09T07:03:16.563Z,65.80
2022-11-09T07:05:47.806Z,69.60
2022-11-09T07:08:14.800Z,40.80
2022-11-09T07:10:42.237Z,47.40
2022-11-09T07:13:09.712Z,51.20
2022-11-09T07:15:37.375Z,50.00
2022-11-09T07:18:08.319Z,51.50
2022-11-09T07:20:35.566Z,48.30
2022-11-09T07:23:02.495Z,46.10
2022-11-09T07:25:29.651Z,34.90
2022-11-09T07:28:03.950Z,36.10
2022-11-09T07:30:31.738Z,37.70
2022-11-09T07:33:09.379Z,42.00
2022-11-09T07:35:47.630Z,47.90
2022-11-09T07:38:16.138Z,44.60
2022-11-09T07:40:44.405Z,29.80
2022-11-09T07:43:12.571Z,31.80
2022-11-09T07:45:40.154Z,27.10
2022-11-09T07:48:09.836Z,26.50
2022-11-09T07:50:37.893Z,31.30
2022-11-09T07:53:07.201Z,26.90
2022-11-09T07:55:34.727Z,24.50
2022-11-09T07:58:13.684Z,17.90
2022-11-09T08:00:41.835Z,17.80
2022-11-09T08:03:09.422Z,17.80
2022-11-09T08:05:36.670Z,21.50
2022-11-09T08:08:05.965Z,27.10
2022-11-09T08:10:33.841Z,26.30
2022-11-09T08:13:03.154Z,27.70
2022-11-09T08:15:30.233Z,26.00
2022-11-09T08:18:18.055Z,25.10
2022-11-09T08:20:45.910Z,26.00
2022-11-09T08:23:16.828Z,26.20
2022-11-09T08:25:45.810Z,25.30
2022-11-09T08:28:15.183Z,27.30
2022-11-09T08:30:43.459Z,25.50
2022-11-09T08:33:11.898Z,24.70
2022-11-09T08:35:39.617Z,24.60
2022-11-09T08:38:06.702Z,25.70
2022-11-09T08:40:34.336Z,29.20
2022-11-09T08:43:03.634Z,21.60
2022-11-09T08:45:35.468Z,16.00
2022-11-09T08:48:02.909Z,15.00
2022-11-09T08:50:36.035Z,15.20
2022-11-09T08:53:03.926Z,16.60
2022-11-09T08:55:31.489Z,24.40
2022-11-09T08:57:59.424Z,26.90
2022-11-09T09:00:27.501Z,27.00
2022-11-09T09:02:54.858Z,24.50
2022-11-09T09:05:21.828Z,22.70
2022-11-09T09:07:49.567Z,25.30
2022-11-09T09:10:16.790Z,20.50
2022-11-09T09:12:44.404Z,18.20
2022-11-09T09:15:11.814Z,15.30
2022-11-09T09:17:38.986Z,13.30
2022-11-09T09:20:06.534Z,15.40
2022-11-09T09:22:34.193Z,20.60
2022-11-09T09:25:01.235Z,19.30
2022-11-09T09:27:29.738Z,16.30
2022-11-09T09:29:57.383Z,17.30
2022-11-09T09:32:24.647Z,14.80
2022-11-09T09:34:51.469Z,14.60
2022-11-09T09:37:18.828Z,15.20
2022-11-09T09:39:45.798Z,12.60
2022-11-09T09:42:17.956Z,13.10
2022-11-09T09:44:53.642Z,11.20
2022-11-09T09:47:42.546Z,14.00
2022-11-09T09:50:19.170Z,14.30
2022-11-09T14:10:20.036Z,13.70
2022-11-09T14:13:36.385Z,10.30
2022-11-09T14:19:39.015Z,9.40
2022-11-09T14:22:25.475Z,12.10
2022-11-09T14:25:18.834Z,18.50
2022-11-09T14:28:36.816Z,12.10
2022-11-09T14:31:22.353Z,15.70
2022-11-09T14:34:14.594Z,13.60
2022-11-09T14:37:04.686Z,18.30
2022-11-09T14:39:53.204Z,19.00
2022-11-09T14:42:44.901Z,18.90
2022-11-09T14:45:32.322Z,25.70
2022-11-09T14:48:19.285Z,22.10
2022-11-09T14:51:07.086Z,23.40
2022-11-09T14:53:52.677Z,23.30
2022-11-09T14:56:38.757Z,25.10
2022-11-09T14:59:31.378Z,37.60
2022-11-09T15:02:18.637Z,41.80
2022-11-09T15:05:05.826Z,64.10
2022-11-09T15:07:52.058Z,54.60
2022-11-09T15:10:37.628Z,63.90
2022-11-09T15:13:31.484Z,56.20
2022-11-09T15:16:24.529Z,51.60
2022-11-09T15:19:37.457Z,44.60
2022-11-09T15:22:58.889Z,42.10
2022-11-09T15:25:52.960Z,41.10
2022-11-09T15:28:46.805Z,33.20
2022-11-09T15:31:33.699Z,34.80
2022-11-09T15:34:22.494Z,36.60
2022-11-09T15:37:42.980Z,31.90
2022-11-09T15:40:29.401Z,33.50
2022-11-09T15:43:15.078Z,22.70
2022-11-09T15:46:01.131Z,22.00
2022-11-09T15:48:46.964Z,21.90
2022-11-09T15:51:35.548Z,26.60
2022-11-09T15:54:22.633Z,19.20
2022-11-09T15:57:12.785Z,27.10
2022-11-09T16:00:00.422Z,22.20
2022-11-09T16:02:46.488Z,23.80
2022-11-09T16:05:33.148Z,24.10
2022-11-09T16:08:19.520Z,25.30
2022-11-09T16:11:05.996Z,28.90
2022-11-09T16:13:52.038Z,24.60
2022-11-09T16:16:39.462Z,27.10
2022-11-09T16:19:24.965Z,29.40
2022-11-09T16:22:12.249Z,29.10
2022-11-09T16:24:59.178Z,36.10
2022-11-09T16:27:51.008Z,30.00
2022-11-09T16:30:45.504Z,26.40
2022-11-09T16:33:33.758Z,24.20
2022-11-09T16:36:22.982Z,25.40
2022-11-09T16:39:12.857Z,24.50
2022-11-09T16:42:01.419Z,27.20
2022-11-09T16:44:48.502Z,19.60
2022-11-09T16:47:52.620Z,19.10
2022-11-09T16:50:39.780Z,22.70
2022-11-09T16:53:27.184Z,23.90
2022-11-09T16:56:13.953Z,25.90
2022-11-09T16:59:00.932Z,21.60
2022-11-09T17:01:55.693Z,24.50
2022-11-09T17:04:41.772Z,30.90
2022-11-09T17:07:28.043Z,27.50
2022-11-09T17:10:14.073Z,28.10
2022-11-09T17:13:01.136Z,29.40
2022-11-09T17:15:48.546Z,41.90
2022-11-09T17:18:37.822Z,49.90
2022-11-09T17:27:28.531Z,38.30
2022-11-09T17:30:14.353Z,48.60
2022-11-09T17:33:00.742Z,50.50
2022-11-09T17:35:46.730Z,46.30
2022-11-09T17:38:33.486Z,39.70
2022-11-09T17:41:19.980Z,34.90
2022-11-09T17:44:06.134Z,34.10
2022-11-09T17:46:51.922Z,58.90
2022-11-09T17:49:39.399Z,53.90
2022-11-09T21:28:22.823Z,27.90
2022-11-09T21:31:09.107Z,26.50
2022-11-09T21:33:54.969Z,21.20
2022-11-09T21:36:43.933Z,20.00
2022-11-09T21:39:30.328Z,20.40
2022-11-09T21:42:16.376Z,23.20
2022-11-09T21:45:02.138Z,23.80
2022-11-09T21:47:49.115Z,30.20
2022-11-09T21:50:35.009Z,25.90
2022-11-09T21:53:22.109Z,26.90
2022-11-09T21:56:08.337Z,21.90
2022-11-09T21:58:54.842Z,20.40
2022-11-09T22:01:41.987Z,22.80
2022-11-09T22:04:27.725Z,24.30
2022-11-09T22:07:13.444Z,23.10
2022-11-09T22:10:10.067Z,22.70
2022-11-09T22:13:18.777Z,21.70
2022-11-09T22:16:09.430Z,23.60
2022-11-09T22:19:15.928Z,24.90
2022-11-09T22:22:01.386Z,25.90
2022-11-09T22:24:47.413Z,19.70
2022-11-09T22:27:33.295Z,18.00
2022-11-09T22:30:19.750Z,22.10
2022-11-09T22:39:10.359Z,26.70
2022-11-09T22:41:55.940Z,28.60
2022-11-09T22:44:42.728Z,23.70
2022-11-09T22:47:28.613Z,25.40
2022-11-09T22:50:15.107Z,22.40
2022-11-09T22:53:03.648Z,19.90
2022-11-09T22:55:57.545Z,18.60
2022-11-09T22:58:45.187Z,22.90
2022-11-09T23:01:31.681Z,24.00
2022-11-09T23:04:17.346Z,23.40
2022-11-09T23:07:03.408Z,24.00
2022-11-09T23:09:49.236Z,18.60
2022-11-09T23:12:36.558Z,18.30
2022-11-09T23:15:22.481Z,20.50
2022-11-09T23:18:28.199Z,20.60
2022-11-09T23:21:14.040Z,24.00
2022-11-09T23:24:04.836Z,21.10
2022-11-09T23:26:50.421Z,25.50
2022-11-09T23:29:36.216Z,21.80
2022-11-09T23:32:22.053Z,25.80
2022-11-09T23:35:08.577Z,20.40
2022-11-09T23:37:59.066Z,17.50
2022-11-09T23:40:44.428Z,26.50
2022-11-09T23:43:29.998Z,23.30
2022-11-09T23:46:16.094Z,39.30
2022-11-09T23:49:01.699Z,46.60
2022-11-09T23:51:47.406Z,33.60
2022-11-09T23:54:33.348Z,27.90
2022-11-09T23:57:19.234Z,28.90
